sensor_id;sensor_type;location;lat;lon;timestamp;P1;durP1;ratioP1;P2;durP2;ratioP2
57023;SDS011;42916;54.346;18.562;2022-08-04T00:01:17;6.20;;;3.60;;
57023;SDS011;42916;54.346;18.562;2022-08-04T00:04:01;7.70;;;3.70;;
57023;SDS011;42916;54.346;18.562;2022-08-04T00:06:33;5.20;;;3.20;;
57023;SDS011;42916;54.346;18.562;2022-08-04T00:09:13;5.40;;;3.20;;
57023;SDS011;42916;54.346;18.562;2022-08-04T00:11:47;5.00;;;3.70;;
57023;SDS011;42916;54.346;18.562;2022-08-04T00:14:15;7.00;;;3.50;;
57023;SDS011;42916;54.346;18.562;2022-08-04T00:16:44;6.10;;;3.50;;
57023;SDS011;42916;54.346;18.562;2022-08-04T00:19:19;6.50;;;3.50;;
57023;SDS011;42916;54.346;18.562;2022-08-04T00:22:02;7.00;;;3.60;;
57023;SDS011;42916;54.346;18.562;2022-08-04T00:24:33;5.60;;;3.50;;
57023;SDS011;42916;54.346;18.562;2022-08-04T00:27:02;7.90;;;3.70;;
57023;SDS011;42916;54.346;18.562;2022-08-04T00:29:29;6.70;;;3.40;;
57023;SDS011;42916;54.346;18.562;2022-08-04T00:31:56;4.00;;;3.20;;
57023;SDS011;42916;54.346;18.562;2022-08-04T00:34:24;9.40;;;3.40;;
57023;SDS011;42916;54.346;18.562;2022-08-04T00:36:53;4.40;;;3.40;;
57023;SDS011;42916;54.346;18.562;2022-08-04T00:39:20;4.50;;;3.60;;
57023;SDS011;42916;54.346;18.562;2022-08-04T00:41:51;5.30;;;3.50;;
57023;SDS011;42916;54.346;18.562;2022-08-04T00:44:34;6.90;;;3.30;;
57023;SDS011;42916;54.346;18.562;2022-08-04T00:47:21;3.80;;;3.20;;
57023;SDS011;42916;54.346;18.562;2022-08-04T00:53:58;8.80;;;3.40;;
57023;SDS011;42916;54.346;18.562;2022-08-04T00:59:38;4.40;;;3.30;;
57023;SDS011;42916;54.346;18.562;2022-08-04T01:02:30;4.80;;;3.20;;
57023;SDS011;42916;54.346;18.562;2022-08-04T01:05:16;6.70;;;3.30;;
57023;SDS011;42916;54.346;18.562;2022-08-04T01:07:59;6.90;;;3.50;;
57023;SDS011;42916;54.346;18.562;2022-08-04T01:16:17;6.40;;;3.60;;
57023;SDS011;42916;54.346;18.562;2022-08-04T01:18:56;6.20;;;3.70;;
57023;SDS011;42916;54.346;18.562;2022-08-04T01:24:12;5.30;;;3.20;;
57023;SDS011;42916;54.346;18.562;2022-08-04T01:29:25;4.10;;;3.50;;
57023;SDS011;42916;54.346;18.562;2022-08-04T01:34:27;3.90;;;3.50;;
57023;SDS011;42916;54.346;18.562;2022-08-04T01:36:57;4.30;;;3.20;;
57023;SDS011;42916;54.346;18.562;2022-08-04T01:39:32;5.40;;;3.40;;
57023;SDS011;42916;54.346;18.562;2022-08-04T01:42:07;5.70;;;3.90;;
57023;SDS011;42916;54.346;18.562;2022-08-04T01:44:36;5.70;;;3.60;;
57023;SDS011;42916;54.346;18.562;2022-08-04T01:49:32;5.20;;;3.40;;
57023;SDS011;42916;54.346;18.562;2022-08-04T01:51:58;4.40;;;3.50;;
57023;SDS011;42916;54.346;18.562;2022-08-04T01:54:25;4.00;;;3.60;;
57023;SDS011;42916;54.346;18.562;2022-08-04T01:56:53;3.70;;;3.40;;
57023;SDS011;42916;54.346;18.562;2022-08-04T01:59:21;3.50;;;3.20;;
57023;SDS011;42916;54.346;18.562;2022-08-04T02:01:48;4.20;;;3.30;;
57023;SDS011;42916;54.346;18.562;2022-08-04T02:04:15;4.90;;;3.80;;
57023;SDS011;42916;54.346;18.562;2022-08-04T02:06:51;5.10;;;4.10;;
57023;SDS011;42916;54.346;18.562;2022-08-04T02:15:01;4.70;;;3.80;;
57023;SDS011;42916;54.346;18.562;2022-08-04T02:20:14;5.10;;;3.10;;
57023;SDS011;42916;54.346;18.562;2022-08-04T02:22:52;6.50;;;3.90;;
57023;SDS011;42916;54.346;18.562;2022-08-04T02:25:24;6.00;;;3.90;;
57023;SDS011;42916;54.346;18.562;2022-08-04T02:28:00;6.00;;;3.70;;
57023;SDS011;42916;54.346;18.562;2022-08-04T02:30:42;4.00;;;3.60;;
57023;SDS011;42916;54.346;18.562;2022-08-04T02:33:19;4.60;;;3.70;;
57023;SDS011;42916;54.346;18.562;2022-08-04T02:35:52;4.90;;;4.00;;
57023;SDS011;42916;54.346;18.562;2022-08-04T02:41:16;7.00;;;4.00;;
57023;SDS011;42916;54.346;18.562;2022-08-04T02:43:47;7.80;;;4.10;;
57023;SDS011;42916;54.346;18.562;2022-08-04T02:46:15;5.50;;;3.90;;
57023;SDS011;42916;54.346;18.562;2022-08-04T02:48:45;6.40;;;4.00;;
57023;SDS011;42916;54.346;18.562;2022-08-04T02:51:14;4.40;;;3.90;;
57023;SDS011;42916;54.346;18.562;2022-08-04T02:53:42;6.10;;;4.10;;
57023;SDS011;42916;54.346;18.562;2022-08-04T02:56:09;10.80;;;4.20;;
57023;SDS011;42916;54.346;18.562;2022-08-04T03:01:07;6.10;;;3.90;;
57023;SDS011;42916;54.346;18.562;2022-08-04T03:03:38;4.90;;;3.90;;
57023;SDS011;42916;54.346;18.562;2022-08-04T03:06:24;9.40;;;4.20;;
57023;SDS011;42916;54.346;18.562;2022-08-04T03:11:55;5.40;;;4.00;;
57023;SDS011;42916;54.346;18.562;2022-08-04T03:15:17;7.00;;;4.40;;
57023;SDS011;42916;54.346;18.562;2022-08-04T03:23:39;5.70;;;4.40;;
57023;SDS011;42916;54.346;18.562;2022-08-04T03:26:33;6.40;;;4.60;;
57023;SDS011;42916;54.346;18.562;2022-08-04T03:37:28;5.50;;;4.30;;
57023;SDS011;42916;54.346;18.562;2022-08-04T03:40:39;7.50;;;4.70;;
57023;SDS011;42916;54.346;18.562;2022-08-04T03:43:25;6.10;;;5.30;;
57023;SDS011;42916;54.346;18.562;2022-08-04T03:57:44;6.60;;;4.90;;
57023;SDS011;42916;54.346;18.562;2022-08-04T04:00:29;6.50;;;4.80;;
57023;SDS011;42916;54.346;18.562;2022-08-04T04:06:15;7.80;;;5.60;;
57023;SDS011;42916;54.346;18.562;2022-08-04T04:20:55;9.20;;;6.10;;
57023;SDS011;42916;54.346;18.562;2022-08-04T04:38:05;10.50;;;6.90;;
57023;SDS011;42916;54.346;18.562;2022-08-04T04:40:58;10.40;;;7.20;;
57023;SDS011;42916;54.346;18.562;2022-08-04T04:46:49;12.20;;;7.00;;
57023;SDS011;42916;54.346;18.562;2022-08-04T04:49:39;10.30;;;7.10;;
57023;SDS011;42916;54.346;18.562;2022-08-04T04:55:21;11.80;;;8.00;;
57023;SDS011;42916;54.346;18.562;2022-08-04T04:57:52;12.00;;;8.00;;
57023;SDS011;42916;54.346;18.562;2022-08-04T05:00:24;9.10;;;7.30;;
57023;SDS011;42916;54.346;18.562;2022-08-04T05:06:17;13.10;;;8.20;;
57023;SDS011;42916;54.346;18.562;2022-08-04T05:12:13;11.30;;;7.30;;
57023;SDS011;42916;54.346;18.562;2022-08-04T05:14:49;12.90;;;7.60;;
57023;SDS011;42916;54.346;18.562;2022-08-04T05:17:26;11.20;;;8.10;;
57023;SDS011;42916;54.346;18.562;2022-08-04T05:20:42;9.50;;;7.10;;
57023;SDS011;42916;54.346;18.562;2022-08-04T05:23:02;12.20;;;6.80;;
57023;SDS011;42916;54.346;18.562;2022-08-04T05:25:46;13.80;;;6.90;;
57023;SDS011;42916;54.346;18.562;2022-08-04T05:28:21;15.20;;;7.10;;
57023;SDS011;42916;54.346;18.562;2022-08-04T05:30:54;11.00;;;6.80;;
57023;SDS011;42916;54.346;18.562;2022-08-04T05:33:26;14.20;;;7.10;;
57023;SDS011;42916;54.346;18.562;2022-08-04T05:35:59;14.70;;;7.40;;
57023;SDS011;42916;54.346;18.562;2022-08-04T05:38:35;9.50;;;7.80;;
57023;SDS011;42916;54.346;18.562;2022-08-04T05:41:04;12.20;;;6.80;;
57023;SDS011;42916;54.346;18.562;2022-08-04T05:43:34;9.80;;;7.20;;
57023;SDS011;42916;54.346;18.562;2022-08-04T05:46:03;12.90;;;7.20;;
57023;SDS011;42916;54.346;18.562;2022-08-04T05:48:31;8.90;;;6.80;;
57023;SDS011;42916;54.346;18.562;2022-08-04T05:50:59;12.30;;;7.00;;
57023;SDS011;42916;54.346;18.562;2022-08-04T05:53:28;14.70;;;6.60;;
57023;SDS011;42916;54.346;18.562;2022-08-04T05:55:56;8.30;;;6.70;;
57023;SDS011;42916;54.346;18.562;2022-08-04T05:58:25;9.70;;;5.90;;
57023;SDS011;42916;54.346;18.562;2022-08-04T06:00:57;10.20;;;6.50;;
57023;SDS011;42916;54.346;18.562;2022-08-04T06:03:26;15.50;;;6.40;;
57023;SDS011;42916;54.346;18.562;2022-08-04T06:05:57;9.40;;;6.50;;
57023;SDS011;42916;54.346;18.562;2022-08-04T06:08:25;9.10;;;6.30;;
57023;SDS011;42916;54.346;18.562;2022-08-04T06:10:52;12.70;;;6.60;;
57023;SDS011;42916;54.346;18.562;2022-08-04T06:13:25;7.90;;;6.30;;
57023;SDS011;42916;54.346;18.562;2022-08-04T06:15:55;8.10;;;6.60;;
57023;SDS011;42916;54.346;18.562;2022-08-04T06:20:54;10.60;;;7.40;;
57023;SDS011;42916;54.346;18.562;2022-08-04T06:23:23;10.20;;;6.50;;
57023;SDS011;42916;54.346;18.562;2022-08-04T06:25:56;11.60;;;7.10;;
57023;SDS011;42916;54.346;18.562;2022-08-04T06:28:26;10.70;;;7.20;;
57023;SDS011;42916;54.346;18.562;2022-08-04T06:30:54;9.30;;;6.90;;
57023;SDS011;42916;54.346;18.562;2022-08-04T06:33:28;13.50;;;7.30;;
57023;SDS011;42916;54.346;18.562;2022-08-04T06:36:03;10.40;;;7.10;;
57023;SDS011;42916;54.346;18.562;2022-08-04T06:38:32;8.20;;;7.00;;
57023;SDS011;42916;54.346;18.562;2022-08-04T06:41:01;10.90;;;7.50;;
57023;SDS011;42916;54.346;18.562;2022-08-04T06:43:29;10.50;;;7.10;;
57023;SDS011;42916;54.346;18.562;2022-08-04T06:45:57;9.20;;;7.10;;
57023;SDS011;42916;54.346;18.562;2022-08-04T06:48:27;10.70;;;7.20;;
57023;SDS011;42916;54.346;18.562;2022-08-04T06:50:56;8.10;;;7.30;;
57023;SDS011;42916;54.346;18.562;2022-08-04T06:53:25;11.00;;;7.20;;
57023;SDS011;42916;54.346;18.562;2022-08-04T06:55:52;11.80;;;7.00;;
57023;SDS011;42916;54.346;18.562;2022-08-04T06:58:20;8.80;;;7.00;;
57023;SDS011;42916;54.346;18.562;2022-08-04T07:00:48;8.10;;;7.10;;
57023;SDS011;42916;54.346;18.562;2022-08-04T07:03:17;9.20;;;6.90;;
57023;SDS011;42916;54.346;18.562;2022-08-04T07:05:47;8.50;;;6.30;;
57023;SDS011;42916;54.346;18.562;2022-08-04T07:08:16;12.80;;;6.90;;
57023;SDS011;42916;54.346;18.562;2022-08-04T07:10:44;12.30;;;7.30;;
57023;SDS011;42916;54.346;18.562;2022-08-04T07:13:11;10.20;;;6.90;;
57023;SDS011;42916;54.346;18.562;2022-08-04T07:15:45;10.80;;;6.80;;
57023;SDS011;42916;54.346;18.562;2022-08-04T07:18:13;10.90;;;6.60;;
57023;SDS011;42916;54.346;18.562;2022-08-04T07:20:40;11.10;;;6.90;;
57023;SDS011;42916;54.346;18.562;2022-08-04T07:23:08;10.10;;;6.40;;
57023;SDS011;42916;54.346;18.562;2022-08-04T07:25:38;8.40;;;6.50;;
57023;SDS011;42916;54.346;18.562;2022-08-04T07:28:05;10.20;;;6.70;;
57023;SDS011;42916;54.346;18.562;2022-08-04T07:30:32;12.20;;;6.10;;
57023;SDS011;42916;54.346;18.562;2022-08-04T07:33:00;8.70;;;6.40;;
57023;SDS011;42916;54.346;18.562;2022-08-04T07:35:28;7.10;;;6.00;;
57023;SDS011;42916;54.346;18.562;2022-08-04T07:37:55;7.20;;;6.00;;
57023;SDS011;42916;54.346;18.562;2022-08-04T07:40:22;11.60;;;6.60;;
57023;SDS011;42916;54.346;18.562;2022-08-04T07:42:49;10.30;;;6.40;;
57023;SDS011;42916;54.346;18.562;2022-08-04T07:45:17;10.00;;;6.40;;
57023;SDS011;42916;54.346;18.562;2022-08-04T07:47:45;6.30;;;5.70;;
57023;SDS011;42916;54.346;18.562;2022-08-04T07:50:13;7.60;;;6.00;;
57023;SDS011;42916;54.346;18.562;2022-08-04T07:52:40;6.50;;;5.90;;
57023;SDS011;42916;54.346;18.562;2022-08-04T07:55:07;7.90;;;6.00;;
57023;SDS011;42916;54.346;18.562;2022-08-04T07:57:34;6.10;;;5.40;;
57023;SDS011;42916;54.346;18.562;2022-08-04T08:00:01;8.50;;;5.50;;
57023;SDS011;42916;54.346;18.562;2022-08-04T08:02:38;9.30;;;5.20;;
57023;SDS011;42916;54.346;18.562;2022-08-04T08:05:06;5.70;;;5.00;;
57023;SDS011;42916;54.346;18.562;2022-08-04T08:07:35;5.50;;;4.90;;
57023;SDS011;42916;54.346;18.562;2022-08-04T08:10:02;6.10;;;5.40;;
57023;SDS011;42916;54.346;18.562;2022-08-04T08:12:28;7.40;;;5.30;;
57023;SDS011;42916;54.346;18.562;2022-08-04T08:14:57;7.70;;;5.40;;
57023;SDS011;42916;54.346;18.562;2022-08-04T08:17:24;6.70;;;5.00;;
57023;SDS011;42916;54.346;18.562;2022-08-04T08:19:51;6.00;;;5.10;;
57023;SDS011;42916;54.346;18.562;2022-08-04T08:22:18;8.80;;;5.20;;
57023;SDS011;42916;54.346;18.562;2022-08-04T08:24:44;5.20;;;4.70;;
57023;SDS011;42916;54.346;18.562;2022-08-04T08:27:11;5.90;;;5.20;;
57023;SDS011;42916;54.346;18.562;2022-08-04T08:29:37;7.20;;;5.30;;
57023;SDS011;42916;54.346;18.562;2022-08-04T08:32:05;5.20;;;4.60;;
57023;SDS011;42916;54.346;18.562;2022-08-04T08:34:35;5.60;;;4.70;;
57023;SDS011;42916;54.346;18.562;2022-08-04T08:39:58;5.70;;;5.00;;
57023;SDS011;42916;54.346;18.562;2022-08-04T08:45:20;5.70;;;4.80;;
57023;SDS011;42916;54.346;18.562;2022-08-04T08:48:03;6.40;;;4.70;;
57023;SDS011;42916;54.346;18.562;2022-08-04T09:02:13;8.60;;;5.00;;
57023;SDS011;42916;54.346;18.562;2022-08-04T09:13:20;4.90;;;4.40;;
57023;SDS011;42916;54.346;18.562;2022-08-04T09:16:00;7.40;;;4.10;;
57023;SDS011;42916;54.346;18.562;2022-08-04T09:18:36;5.30;;;4.80;;
57023;SDS011;42916;54.346;18.562;2022-08-04T09:27:13;6.40;;;4.80;;
57023;SDS011;42916;54.346;18.562;2022-08-04T09:30:00;5.70;;;4.50;;
57023;SDS011;42916;54.346;18.562;2022-08-04T09:35:04;7.00;;;4.60;;
57023;SDS011;42916;54.346;18.562;2022-08-04T09:37:56;5.10;;;4.70;;
57023;SDS011;42916;54.346;18.562;2022-08-04T09:40:33;4.60;;;4.30;;
57023;SDS011;42916;54.346;18.562;2022-08-04T09:43:16;5.10;;;4.60;;
57023;SDS011;42916;54.346;18.562;2022-08-04T09:49:04;7.20;;;4.80;;
57023;SDS011;42916;54.346;18.562;2022-08-04T09:54:43;7.20;;;4.30;;
57023;SDS011;42916;54.346;18.562;2022-08-04T10:00:12;4.90;;;4.30;;
57023;SDS011;42916;54.346;18.562;2022-08-04T10:02:54;5.20;;;4.40;;
57023;SDS011;42916;54.346;18.562;2022-08-04T10:11:11;6.10;;;4.20;;
57023;SDS011;42916;54.346;18.562;2022-08-04T10:13:48;6.30;;;4.40;;
57023;SDS011;42916;54.346;18.562;2022-08-04T10:16:39;4.90;;;4.40;;
57023;SDS011;42916;54.346;18.562;2022-08-04T10:19:25;6.00;;;3.80;;
57023;SDS011;42916;54.346;18.562;2022-08-04T10:27:49;5.40;;;3.80;;
57023;SDS011;42916;54.346;18.562;2022-08-04T10:30:19;4.90;;;3.90;;
57023;SDS011;42916;54.346;18.562;2022-08-04T10:33:01;4.70;;;4.20;;
57023;SDS011;42916;54.346;18.562;2022-08-04T10:35:36;5.80;;;4.20;;
57023;SDS011;42916;54.346;18.562;2022-08-04T10:48:35;4.30;;;3.70;;
57023;SDS011;42916;54.346;18.562;2022-08-04T10:54:05;7.00;;;4.20;;
57023;SDS011;42916;54.346;18.562;2022-08-04T10:56:35;5.20;;;4.10;;
57023;SDS011;42916;54.346;18.562;2022-08-04T10:59:12;4.80;;;3.90;;
57023;SDS011;42916;54.346;18.562;2022-08-04T11:01:45;4.50;;;4.00;;
57023;SDS011;42916;54.346;18.562;2022-08-04T11:04:19;3.80;;;3.50;;
57023;SDS011;42916;54.346;18.562;2022-08-04T11:06:51;4.20;;;3.80;;
57023;SDS011;42916;54.346;18.562;2022-08-04T11:09:18;4.10;;;3.60;;
57023;SDS011;42916;54.346;18.562;2022-08-04T11:14:49;4.30;;;4.00;;
57023;SDS011;42916;54.346;18.562;2022-08-04T11:17:23;4.20;;;3.80;;
57023;SDS011;42916;54.346;18.562;2022-08-04T11:23:10;4.30;;;3.80;;
57023;SDS011;42916;54.346;18.562;2022-08-04T11:28:32;4.70;;;3.60;;
57023;SDS011;42916;54.346;18.562;2022-08-04T11:31:17;4.00;;;3.70;;
57023;SDS011;42916;54.346;18.562;2022-08-04T11:39:37;4.30;;;3.90;;
57023;SDS011;42916;54.346;18.562;2022-08-04T11:42:10;6.10;;;4.20;;
57023;SDS011;42916;54.346;18.562;2022-08-04T11:47:31;3.80;;;3.50;;
57023;SDS011;42916;54.346;18.562;2022-08-04T11:52:33;4.70;;;4.00;;
57023;SDS011;42916;54.346;18.562;2022-08-04T11:55:05;3.90;;;3.50;;
57023;SDS011;42916;54.346;18.562;2022-08-04T11:57:34;4.90;;;3.70;;
57023;SDS011;42916;54.346;18.562;2022-08-04T12:00:01;4.30;;;3.90;;
57023;SDS011;42916;54.346;18.562;2022-08-04T12:02:40;6.40;;;4.10;;
57023;SDS011;42916;54.346;18.562;2022-08-04T12:05:32;4.20;;;3.60;;
57023;SDS011;42916;54.346;18.562;2022-08-04T12:13:49;4.40;;;3.90;;
57023;SDS011;42916;54.346;18.562;2022-08-04T12:16:31;9.10;;;4.20;;
57023;SDS011;42916;54.346;18.562;2022-08-04T12:19:22;8.90;;;4.00;;
57023;SDS011;42916;54.346;18.562;2022-08-04T12:21:55;7.80;;;3.80;;
57023;SDS011;42916;54.346;18.562;2022-08-04T12:24:36;7.80;;;3.70;;
57023;SDS011;42916;54.346;18.562;2022-08-04T12:27:13;4.40;;;3.80;;
57023;SDS011;42916;54.346;18.562;2022-08-04T12:29:43;7.90;;;3.70;;
57023;SDS011;42916;54.346;18.562;2022-08-04T12:34:53;5.20;;;3.50;;
57023;SDS011;42916;54.346;18.562;2022-08-04T12:37:56;5.00;;;3.80;;
57023;SDS011;42916;54.346;18.562;2022-08-04T12:40:39;9.00;;;3.80;;
57023;SDS011;42916;54.346;18.562;2022-08-04T12:45:40;9.50;;;3.30;;
57023;SDS011;42916;54.346;18.562;2022-08-04T12:48:09;3.80;;;3.30;;
57023;SDS011;42916;54.346;18.562;2022-08-04T12:50:37;5.00;;;3.60;;
57023;SDS011;42916;54.346;18.562;2022-08-04T12:53:12;4.80;;;3.40;;
57023;SDS011;42916;54.346;18.562;2022-08-04T12:55:47;5.60;;;3.70;;
57023;SDS011;42916;54.346;18.562;2022-08-04T12:58:17;7.50;;;3.90;;
57023;SDS011;42916;54.346;18.562;2022-08-04T13:00:53;5.80;;;3.60;;
57023;SDS011;42916;54.346;18.562;2022-08-04T13:03:26;4.40;;;3.70;;
57023;SDS011;42916;54.346;18.562;2022-08-04T13:05:56;7.60;;;3.70;;
57023;SDS011;42916;54.346;18.562;2022-08-04T13:08:22;4.70;;;3.40;;
57023;SDS011;42916;54.346;18.562;2022-08-04T13:10:51;6.60;;;3.50;;
57023;SDS011;42916;54.346;18.562;2022-08-04T13:13:26;8.70;;;3.60;;
57023;SDS011;42916;54.346;18.562;2022-08-04T13:15:55;6.50;;;3.30;;
57023;SDS011;42916;54.346;18.562;2022-08-04T13:18:24;6.90;;;3.50;;
57023;SDS011;42916;54.346;18.562;2022-08-04T13:20:53;3.70;;;3.10;;
57023;SDS011;42916;54.346;18.562;2022-08-04T13:23:21;3.90;;;3.60;;
57023;SDS011;42916;54.346;18.562;2022-08-04T13:25:52;4.40;;;3.70;;
57023;SDS011;42916;54.346;18.562;2022-08-04T13:28:22;3.60;;;3.30;;
57023;SDS011;42916;54.346;18.562;2022-08-04T13:30:52;4.40;;;3.60;;
57023;SDS011;42916;54.346;18.562;2022-08-04T13:33:31;5.40;;;3.60;;
57023;SDS011;42916;54.346;18.562;2022-08-04T13:36:00;5.30;;;3.80;;
57023;SDS011;42916;54.346;18.562;2022-08-04T13:38:28;4.40;;;3.60;;
57023;SDS011;42916;54.346;18.562;2022-08-04T13:41:01;10.40;;;3.80;;
57023;SDS011;42916;54.346;18.562;2022-08-04T13:43:33;5.80;;;3.20;;
57023;SDS011;42916;54.346;18.562;2022-08-04T13:46:07;5.50;;;3.40;;
57023;SDS011;42916;54.346;18.562;2022-08-04T13:48:39;5.00;;;3.60;;
57023;SDS011;42916;54.346;18.562;2022-08-04T13:51:08;5.00;;;3.30;;
57023;SDS011;42916;54.346;18.562;2022-08-04T13:53:37;4.90;;;3.40;;
57023;SDS011;42916;54.346;18.562;2022-08-04T13:56:06;8.80;;;3.50;;
57023;SDS011;42916;54.346;18.562;2022-08-04T13:58:40;5.90;;;3.50;;
57023;SDS011;42916;54.346;18.562;2022-08-04T14:01:14;7.00;;;4.00;;
57023;SDS011;42916;54.346;18.562;2022-08-04T14:03:51;4.60;;;3.40;;
57023;SDS011;42916;54.346;18.562;2022-08-04T14:06:20;6.50;;;3.90;;
57023;SDS011;42916;54.346;18.562;2022-08-04T14:08:55;5.00;;;3.40;;
57023;SDS011;42916;54.346;18.562;2022-08-04T14:11:36;6.40;;;3.50;;
57023;SDS011;42916;54.346;18.562;2022-08-04T14:14:17;3.90;;;3.40;;
57023;SDS011;42916;54.346;18.562;2022-08-04T14:17:05;5.40;;;3.30;;
57023;SDS011;42916;54.346;18.562;2022-08-04T14:24:57;4.10;;;3.00;;
57023;SDS011;42916;54.346;18.562;2022-08-04T14:33:14;5.90;;;3.50;;
57023;SDS011;42916;54.346;18.562;2022-08-04T14:35:40;7.10;;;3.40;;
57023;SDS011;42916;54.346;18.562;2022-08-04T14:38:08;5.70;;;3.50;;
57023;SDS011;42916;54.346;18.562;2022-08-04T14:40:37;5.80;;;3.40;;
57023;SDS011;42916;54.346;18.562;2022-08-04T14:43:05;3.60;;;3.20;;
57023;SDS011;42916;54.346;18.562;2022-08-04T14:45:38;7.10;;;3.40;;
57023;SDS011;42916;54.346;18.562;2022-08-04T14:48:12;8.20;;;3.40;;
57023;SDS011;42916;54.346;18.562;2022-08-04T14:50:46;5.80;;;3.50;;
57023;SDS011;42916;54.346;18.562;2022-08-04T14:53:18;6.60;;;3.40;;
57023;SDS011;42916;54.346;18.562;2022-08-04T14:55:47;3.70;;;3.20;;
57023;SDS011;42916;54.346;18.562;2022-08-04T14:58:20;6.50;;;3.10;;
57023;SDS011;42916;54.346;18.562;2022-08-04T15:00:49;4.80;;;3.60;;
57023;SDS011;42916;54.346;18.562;2022-08-04T15:03:17;7.90;;;3.50;;
57023;SDS011;42916;54.346;18.562;2022-08-04T15:05:47;4.70;;;3.50;;
57023;SDS011;42916;54.346;18.562;2022-08-04T15:08:15;6.50;;;3.30;;
57023;SDS011;42916;54.346;18.562;2022-08-04T15:10:42;5.10;;;3.10;;
57023;SDS011;42916;54.346;18.562;2022-08-04T15:13:10;5.00;;;3.50;;
57023;SDS011;42916;54.346;18.562;2022-08-04T15:15:39;4.40;;;3.40;;
57023;SDS011;42916;54.346;18.562;2022-08-04T15:18:11;8.50;;;3.50;;
57023;SDS011;42916;54.346;18.562;2022-08-04T15:20:38;3.70;;;3.40;;
57023;SDS011;42916;54.346;18.562;2022-08-04T15:23:07;5.70;;;3.80;;
57023;SDS011;42916;54.346;18.562;2022-08-04T15:25:38;7.80;;;4.00;;
57023;SDS011;42916;54.346;18.562;2022-08-04T15:28:12;5.70;;;3.50;;
57023;SDS011;42916;54.346;18.562;2022-08-04T15:30:45;4.40;;;3.90;;
57023;SDS011;42916;54.346;18.562;2022-08-04T15:33:13;8.00;;;4.00;;
57023;SDS011;42916;54.346;18.562;2022-08-04T15:35:44;5.90;;;3.80;;
57023;SDS011;42916;54.346;18.562;2022-08-04T15:38:27;5.40;;;3.90;;
57023;SDS011;42916;54.346;18.562;2022-08-04T15:43:49;6.00;;;3.80;;
57023;SDS011;42916;54.346;18.562;2022-08-04T15:49:20;8.00;;;3.90;;
57023;SDS011;42916;54.346;18.562;2022-08-04T15:54:27;4.90;;;3.90;;
57023;SDS011;42916;54.346;18.562;2022-08-04T15:56:54;6.10;;;3.90;;
57023;SDS011;42916;54.346;18.562;2022-08-04T16:07:57;5.00;;;3.80;;
57023;SDS011;42916;54.346;18.562;2022-08-04T16:13:04;7.10;;;4.10;;
57023;SDS011;42916;54.346;18.562;2022-08-04T16:20:58;4.10;;;3.70;;
57023;SDS011;42916;54.346;18.562;2022-08-04T16:23:46;4.10;;;3.80;;
57023;SDS011;42916;54.346;18.562;2022-08-04T16:34:30;6.60;;;4.30;;
57023;SDS011;42916;54.346;18.562;2022-08-04T16:37:06;6.70;;;4.00;;
57023;SDS011;42916;54.346;18.562;2022-08-04T16:39:34;6.00;;;3.90;;
57023;SDS011;42916;54.346;18.562;2022-08-04T16:42:26;5.00;;;4.00;;
57023;SDS011;42916;54.346;18.562;2022-08-04T16:50:14;7.60;;;4.60;;
57023;SDS011;42916;54.346;18.562;2022-08-04T16:52:49;5.90;;;4.90;;
57023;SDS011;42916;54.346;18.562;2022-08-04T16:55:18;5.00;;;4.30;;
57023;SDS011;42916;54.346;18.562;2022-08-04T16:57:46;5.20;;;4.50;;
57023;SDS011;42916;54.346;18.562;2022-08-04T17:00:14;8.60;;;4.80;;
57023;SDS011;42916;54.346;18.562;2022-08-04T17:02:42;5.10;;;4.70;;
57023;SDS011;42916;54.346;18.562;2022-08-04T17:05:21;7.60;;;5.30;;
57023;SDS011;42916;54.346;18.562;2022-08-04T17:13:18;8.60;;;5.90;;
57023;SDS011;42916;54.346;18.562;2022-08-04T17:15:46;6.40;;;5.60;;
57023;SDS011;42916;54.346;18.562;2022-08-04T17:18:25;6.10;;;5.50;;
57023;SDS011;42916;54.346;18.562;2022-08-04T17:20:55;8.20;;;5.70;;
57023;SDS011;42916;54.346;18.562;2022-08-04T17:23:25;7.90;;;5.50;;
57023;SDS011;42916;54.346;18.562;2022-08-04T17:26:04;8.90;;;6.00;;
57023;SDS011;42916;54.346;18.562;2022-08-04T17:28:34;7.00;;;6.10;;
57023;SDS011;42916;54.346;18.562;2022-08-04T17:31:01;13.60;;;6.60;;
57023;SDS011;42916;54.346;18.562;2022-08-04T17:33:30;6.60;;;6.00;;
57023;SDS011;42916;54.346;18.562;2022-08-04T17:35:58;11.50;;;6.60;;
57023;SDS011;42916;54.346;18.562;2022-08-04T17:38:30;9.40;;;6.20;;
57023;SDS011;42916;54.346;18.562;2022-08-04T17:40:59;7.50;;;6.10;;
57023;SDS011;42916;54.346;18.562;2022-08-04T17:43:33;8.00;;;6.50;;
57023;SDS011;42916;54.346;18.562;2022-08-04T17:46:15;9.30;;;6.90;;
57023;SDS011;42916;54.346;18.562;2022-08-04T17:48:41;10.70;;;6.80;;
57023;SDS011;42916;54.346;18.562;2022-08-04T17:51:11;8.40;;;7.00;;
57023;SDS011;42916;54.346;18.562;2022-08-04T17:53:40;11.10;;;7.40;;
57023;SDS011;42916;54.346;18.562;2022-08-04T18:04:28;7.40;;;6.60;;
57023;SDS011;42916;54.346;18.562;2022-08-04T18:06:56;8.60;;;7.10;;
57023;SDS011;42916;54.346;18.562;2022-08-04T18:09:25;13.30;;;7.50;;
57023;SDS011;42916;54.346;18.562;2022-08-04T18:12:07;12.80;;;7.30;;
57023;SDS011;42916;54.346;18.562;2022-08-04T18:14:41;11.00;;;7.20;;
57023;SDS011;42916;54.346;18.562;2022-08-04T18:17:09;9.90;;;7.30;;
57023;SDS011;42916;54.346;18.562;2022-08-04T18:19:37;9.50;;;7.60;;
57023;SDS011;42916;54.346;18.562;2022-08-04T18:22:15;9.10;;;7.20;;
57023;SDS011;42916;54.346;18.562;2022-08-04T18:24:42;8.80;;;7.20;;
57023;SDS011;42916;54.346;18.562;2022-08-04T18:27:09;8.10;;;7.10;;
57023;SDS011;42916;54.346;18.562;2022-08-04T18:29:36;8.80;;;6.80;;
57023;SDS011;42916;54.346;18.562;2022-08-04T18:32:02;8.70;;;7.10;;
57023;SDS011;42916;54.346;18.562;2022-08-04T18:34:29;12.90;;;7.40;;
57023;SDS011;42916;54.346;18.562;2022-08-04T18:36:56;10.60;;;7.00;;
57023;SDS011;42916;54.346;18.562;2022-08-04T18:39:22;13.50;;;7.50;;
57023;SDS011;42916;54.346;18.562;2022-08-04T18:41:50;13.70;;;7.80;;
57023;SDS011;42916;54.346;18.562;2022-08-04T18:44:17;12.80;;;7.70;;
57023;SDS011;42916;54.346;18.562;2022-08-04T18:46:44;11.50;;;7.50;;
57023;SDS011;42916;54.346;18.562;2022-08-04T18:49:10;14.20;;;7.70;;
57023;SDS011;42916;54.346;18.562;2022-08-04T18:51:37;11.70;;;7.60;;
57023;SDS011;42916;54.346;18.562;2022-08-04T18:54:04;10.70;;;7.30;;
57023;SDS011;42916;54.346;18.562;2022-08-04T18:56:32;9.00;;;7.80;;
57023;SDS011;42916;54.346;18.562;2022-08-04T18:58:59;13.00;;;8.10;;
57023;SDS011;42916;54.346;18.562;2022-08-04T19:01:27;13.80;;;7.40;;
57023;SDS011;42916;54.346;18.562;2022-08-04T19:03:55;17.70;;;8.00;;
57023;SDS011;42916;54.346;18.562;2022-08-04T19:06:29;14.40;;;7.80;;
57023;SDS011;42916;54.346;18.562;2022-08-04T19:08:58;16.10;;;7.80;;
57023;SDS011;42916;54.346;18.562;2022-08-04T19:11:25;11.70;;;8.30;;
57023;SDS011;42916;54.346;18.562;2022-08-04T19:13:51;21.50;;;8.60;;
57023;SDS011;42916;54.346;18.562;2022-08-04T19:16:18;14.00;;;8.60;;
57023;SDS011;42916;54.346;18.562;2022-08-04T19:18:45;15.50;;;8.40;;
57023;SDS011;42916;54.346;18.562;2022-08-04T19:21:11;13.70;;;8.40;;
57023;SDS011;42916;54.346;18.562;2022-08-04T19:23:38;11.50;;;8.00;;
57023;SDS011;42916;54.346;18.562;2022-08-04T19:26:05;13.70;;;8.40;;
57023;SDS011;42916;54.346;18.562;2022-08-04T19:28:32;14.30;;;8.10;;
57023;SDS011;42916;54.346;18.562;2022-08-04T19:31:02;12.60;;;8.60;;
57023;SDS011;42916;54.346;18.562;2022-08-04T19:33:30;9.60;;;8.40;;
57023;SDS011;42916;54.346;18.562;2022-08-04T19:35:57;10.00;;;8.70;;